Time;durP1;ratioP1;P1;durP2;ratioP2;P2;SDS_P1;SDS_P2;PMS_P1;PMS_P2;Temp;Humidity;BMP_temperature;BMP_pressure;BME280_temperature;BME280_humidity;BME280_pressure;Samples;Min_cycle;Max_cycle;Signal;HPM_P1;HPM_P2
2022/07/04 00:00:55;;;;;;;5.75;1.55;;;16.50;65.80;;;;;;4984922;28;20058;-83
2022/07/04 00:03:20;;;;;;;3.03;1.73;;;16.50;65.80;;;;;;4991868;28;20033;-81
2022/07/04 00:05:46;;;;;;;2.50;1.50;;;16.50;66.00;;;;;;4995157;28;20568;-83
2022/07/04 00:08:12;;;;;;;5.32;1.90;;;16.50;66.10;;;;;;4994887;28;20477;-83
2022/07/04 00:10:38;;;;;;;4.00;1.70;;;16.40;66.00;;;;;;4997442;28;20046;-83
2022/07/04 00:13:04;;;;;;;4.82;1.92;;;16.40;66.00;;;;;;4985622;28;20110;-83
2022/07/04 00:15:29;;;;;;;5.55;1.88;;;16.40;66.10;;;;;;4977823;28;20130;-83
2022/07/04 00:17:55;;;;;;;3.33;1.80;;;16.40;65.80;;;;;;4996784;28;20507;-83
2022/07/04 00:20:21;;;;;;;5.60;1.77;;;16.40;65.30;;;;;;5003628;28;20034;-83
2022/07/04 00:22:46;;;;;;;2.75;1.40;;;16.30;65.70;;;;;;4976757;28;20035;-83
2022/07/04 00:25:12;;;;;;;4.25;1.50;;;16.30;65.90;;;;;;4976454;28;20035;-83
2022/07/04 00:27:38;;;;;;;6.68;1.70;;;16.20;66.50;;;;;;4977615;28;20046;-83
2022/07/04 00:30:04;;;;;;;6.32;1.85;;;16.20;66.60;;;;;;4975334;28;20019;-83
2022/07/04 00:32:30;;;;;;;3.00;1.52;;;16.20;66.80;;;;;;4983286;28;20027;-83
2022/07/04 00:34:56;;;;;;;6.35;1.70;;;16.20;67.10;;;;;;4995588;28;20033;-83
2022/07/04 00:37:21;;;;;;;2.45;1.42;;;16.30;67.20;;;;;;4996125;28;20041;-82
2022/07/04 00:39:47;;;;;;;8.98;1.70;;;16.20;67.60;;;;;;4994222;28;20030;-83
2022/07/04 00:42:13;;;;;;;4.63;2.22;;;16.20;67.90;;;;;;4995453;28;20022;-83
2022/07/04 00:44:39;;;;;;;4.00;1.88;;;16.10;68.20;;;;;;4997320;28;20019;-83
2022/07/04 00:47:06;;;;;;;4.65;1.50;;;16.10;68.10;;;;;;4995594;28;20105;-83
2022/07/04 00:49:32;;;;;;;3.72;2.00;;;16.10;68.20;;;;;;4996944;28;20058;-83
2022/07/04 00:51:59;;;;;;;7.70;1.88;;;16.10;68.20;;;;;;4995723;28;20030;-83
2022/07/04 00:54:32;;;;;;;6.88;1.88;;;16.10;68.70;;;;;;4997185;28;20110;-83
2022/07/04 00:56:59;;;;;;;5.05;1.60;;;16.00;68.50;;;;;;4989916;28;20049;-83
2022/07/04 00:59:25;;;;;;;4.47;1.60;;;16.10;68.50;;;;;;4976056;28;20094;-84
2022/07/04 01:01:51;;;;;;;5.75;1.92;;;16.00;68.60;;;;;;4995899;28;20026;-83
2022/07/04 01:04:16;;;;;;;2.80;1.55;;;16.00;69.10;;;;;;4995361;28;20059;-83
2022/07/04 01:06:43;;;;;;;2.90;1.88;;;16.00;68.80;;;;;;5011475;28;20023;-83
2022/07/04 01:09:08;;;;;;;4.88;1.90;;;16.00;69.10;;;;;;4999165;28;20027;-82
2022/07/04 01:11:40;;;;;;;3.22;1.23;;;15.90;69.10;;;;;;5000936;28;20050;-82
2022/07/04 01:14:06;;;;;;;3.10;1.70;;;15.90;69.00;;;;;;4981015;28;20058;-83
2022/07/04 01:16:32;;;;;;;4.85;1.92;;;15.90;69.10;;;;;;4978530;28;20378;-82
2022/07/04 01:18:58;;;;;;;4.47;1.70;;;15.90;69.40;;;;;;4984616;28;20035;-83
2022/07/04 01:21:24;;;;;;;4.70;1.98;;;15.90;69.00;;;;;;4979493;28;20547;-83
2022/07/04 01:23:50;;;;;;;3.95;1.92;;;15.80;69.30;;;;;;4979607;28;20038;-83
2022/07/04 01:26:15;;;;;;;9.02;1.83;;;15.80;69.60;;;;;;4990445;28;20025;-83
2022/07/04 01:28:41;;;;;;;7.70;1.88;;;15.80;69.30;;;;;;4980916;28;20117;-83
2022/07/04 01:31:07;;;;;;;4.57;1.58;;;15.80;69.30;;;;;;4979463;28;20129;-83
2022/07/04 01:33:33;;;;;;;3.67;1.60;;;15.80;69.70;;;;;;4979030;28;20481;-83
2022/07/04 01:35:59;;;;;;;4.75;1.98;;;15.80;69.60;;;;;;4981413;28;20404;-83
2022/07/04 01:38:25;;;;;;;5.97;1.80;;;15.80;69.40;;;;;;4979212;28;20034;-83
2022/07/04 01:40:51;;;;;;;5.30;1.50;;;15.80;69.30;;;;;;4980093;28;20018;-83
2022/07/04 01:43:16;;;;;;;5.35;1.77;;;15.80;69.10;;;;;;4979025;28;20041;-82
2022/07/04 01:45:45;;;;;;;4.57;1.80;;;15.70;68.90;;;;;;4980364;28;20015;-83
2022/07/04 01:48:12;;;;;;;5.90;1.70;;;15.70;69.10;;;;;;4979103;28;20038;-83
2022/07/04 01:50:38;;;;;;;7.10;1.98;;;15.70;69.20;;;;;;4979114;28;20115;-83
2022/07/04 01:53:04;;;;;;;2.03;1.50;;;15.70;69.30;;;;;;4979477;28;20035;-83
2022/07/04 01:55:30;;;;;;;5.75;2.05;;;15.70;69.40;;;;;;4977668;28;20037;-83
2022/07/04 01:57:57;;;;;;;5.60;1.90;;;15.60;70.00;;;;;;4980403;28;20069;-83
2022/07/04 02:03:08;;;;;;;5.32;2.00;;;15.50;70.20;;;;;;4997698;28;20037;-83
2022/07/04 02:05:34;;;;;;;3.40;1.75;;;15.50;70.60;;;;;;4998109;28;20046;-83
2022/07/04 02:08:10;;;;;;;4.35;1.83;;;15.50;70.50;;;;;;5013388;28;20485;-83
2022/07/04 02:10:36;;;;;;;2.90;1.88;;;15.50;70.50;;;;;;4988359;28;20034;-82
2022/07/04 02:13:02;;;;;;;5.65;1.60;;;15.40;70.70;;;;;;4978377;28;20042;-83
2022/07/04 02:15:41;;;;;;;6.20;2.60;;;15.40;71.00;;;;;;4980273;28;20034;-82
2022/07/04 02:18:09;;;;;;;4.57;1.70;;;15.40;71.10;;;;;;5001526;28;20053;-82
2022/07/04 02:20:36;;;;;;;3.75;1.88;;;15.40;70.80;;;;;;5003889;28;20305;-82
2022/07/04 02:23:03;;;;;;;2.58;1.50;;;15.40;70.80;;;;;;4978426;28;20405;-83
2022/07/04 02:25:29;;;;;;;5.57;2.00;;;15.40;70.70;;;;;;4979887;28;20041;-83
2022/07/04 02:27:55;;;;;;;3.13;1.85;;;15.40;70.60;;;;;;4977622;28;20106;-83
2022/07/04 02:30:22;;;;;;;5.43;1.63;;;15.30;71.50;;;;;;4978555;28;20034;-82
2022/07/04 02:32:47;;;;;;;5.47;1.67;;;15.30;71.40;;;;;;4994815;28;20064;-83
2022/07/04 02:35:14;;;;;;;7.90;2.00;;;15.30;71.50;;;;;;4995829;28;20034;-83
2022/07/04 02:37:39;;;;;;;6.32;2.15;;;15.30;70.90;;;;;;4999427;28;20467;-83
2022/07/04 02:40:06;;;;;;;4.53;1.65;;;15.30;71.10;;;;;;4997435;28;20030;-83
2022/07/04 02:42:33;;;;;;;2.40;1.60;;;15.30;70.50;;;;;;4980386;28;20078;-81
2022/07/04 02:44:59;;;;;;;2.88;1.42;;;15.30;70.90;;;;;;4977508;28;20026;-83
2022/07/04 02:47:25;;;;;;;5.63;2.05;;;15.30;70.10;;;;;;4976981;28;20023;-82
2022/07/04 02:49:51;;;;;;;5.68;1.83;;;15.20;70.20;;;;;;4992669;28;20609;-82
2022/07/04 02:52:16;;;;;;;7.15;1.70;;;15.20;70.50;;;;;;4997220;28;20038;-82
2022/07/04 02:54:42;;;;;;;3.88;1.58;;;15.10;70.80;;;;;;4987976;28;20031;-82
2022/07/04 02:57:08;;;;;;;3.42;1.50;;;15.10;70.90;;;;;;4977492;28;20023;-82
2022/07/04 02:59:34;;;;;;;6.38;1.80;;;15.00;70.80;;;;;;4985603;28;20052;-83
2022/07/04 03:02:00;;;;;;;4.45;1.88;;;15.00;71.10;;;;;;4995829;28;20019;-83
2022/07/04 03:04:25;;;;;;;3.55;1.90;;;15.00;70.90;;;;;;4997181;28;20035;-82
2022/07/04 03:06:51;;;;;;;4.05;1.42;;;15.00;70.50;;;;;;5009548;28;20031;-83
2022/07/04 03:09:17;;;;;;;8.15;2.40;;;15.00;71.00;;;;;;4992616;28;20117;-82
2022/07/04 03:11:44;;;;;;;3.67;2.00;;;15.00;70.30;;;;;;4979289;28;20122;-83
2022/07/04 03:14:09;;;;;;;2.85;1.70;;;14.90;70.70;;;;;;4977574;28;20058;-83
2022/07/04 03:16:35;;;;;;;6.50;1.85;;;14.90;70.90;;;;;;4978308;28;20034;-82
2022/07/04 03:19:01;;;;;;;6.95;2.60;;;14.80;71.30;;;;;;5006175;28;20072;-83
2022/07/04 03:21:26;;;;;;;2.33;1.63;;;14.80;71.60;;;;;;4995316;28;20090;-83
2022/07/04 03:23:58;;;;;;;5.22;1.52;;;14.80;71.30;;;;;;4996029;28;20062;-83
2022/07/04 03:26:29;;;;;;;3.42;1.70;;;14.90;70.60;;;;;;4997039;28;20030;-82
2022/07/04 03:28:55;;;;;;;3.70;1.63;;;14.80;71.20;;;;;;4997272;28;20133;-82
2022/07/04 03:31:21;;;;;;;2.55;1.45;;;14.70;71.20;;;;;;4996290;28;20033;-83
2022/07/04 03:33:47;;;;;;;7.25;2.10;;;14.70;70.70;;;;;;4997949;28;20097;-82
2022/07/04 03:36:13;;;;;;;3.10;1.38;;;14.60;71.10;;;;;;4982678;28;20046;-83
2022/07/04 03:38:39;;;;;;;5.18;1.75;;;14.60;71.00;;;;;;4976720;28;20030;-83
2022/07/04 03:41:04;;;;;;;5.78;2.10;;;14.50;71.50;;;;;;4998020;28;20061;-83
2022/07/04 03:43:30;;;;;;;4.45;1.83;;;14.60;71.40;;;;;;4996366;28;20491;-83
2022/07/04 03:45:56;;;;;;;2.92;1.60;;;14.60;71.20;;;;;;4979853;28;20401;-83
2022/07/04 03:48:21;;;;;;;2.97;1.38;;;14.60;71.10;;;;;;4976841;28;20052;-82
2022/07/04 03:50:47;;;;;;;2.35;1.48;;;14.50;71.10;;;;;;4977817;28;20035;-82
2022/07/04 03:53:13;;;;;;;4.03;2.13;;;14.60;71.20;;;;;;4976489;28;20035;-82
2022/07/04 03:55:39;;;;;;;3.25;1.60;;;14.40;71.50;;;;;;4976681;28;20136;-82
2022/07/04 03:58:05;;;;;;;5.25;1.88;;;14.50;71.40;;;;;;4977161;28;20487;-82
2022/07/04 04:00:31;;;;;;;2.63;1.70;;;14.40;71.00;;;;;;4983939;28;20030;-82
2022/07/04 04:02:57;;;;;;;4.82;1.88;;;14.40;71.10;;;;;;4997624;28;20492;-82
2022/07/04 04:05:26;;;;;;;3.00;1.40;;;14.30;71.80;;;;;;4995040;28;20019;-82
2022/07/04 04:08:03;;;;;;;4.70;1.80;;;14.30;71.50;;;;;;4995744;28;20407;-82
2022/07/04 04:10:30;;;;;;;4.80;1.90;;;14.20;72.10;;;;;;4994942;28;20448;-82
2022/07/04 04:12:57;;;;;;;3.20;1.55;;;14.20;72.60;;;;;;4994584;28;20042;-82
2022/07/04 04:15:23;;;;;;;4.10;1.58;;;14.10;72.70;;;;;;4996019;28;20066;-82
2022/07/04 04:17:49;;;;;;;3.38;1.60;;;14.10;72.30;;;;;;5005676;28;20048;-82
2022/07/04 04:20:14;;;;;;;4.65;1.77;;;14.10;72.90;;;;;;5016871;28;20041;-82
2022/07/04 04:22:40;;;;;;;5.22;1.60;;;14.00;73.20;;;;;;4976422;28;20605;-82
2022/07/04 04:25:07;;;;;;;2.88;1.30;;;14.00;73.10;;;;;;4976815;28;20023;-82
2022/07/04 04:27:32;;;;;;;2.67;1.30;;;14.10;72.60;;;;;;4976366;28;20573;-82
2022/07/04 04:29:58;;;;;;;4.50;2.05;;;14.10;72.60;;;;;;4976524;28;20066;-83
2022/07/04 04:32:24;;;;;;;2.85;1.38;;;14.10;72.40;;;;;;4975655;28;20114;-82
2022/07/04 04:34:49;;;;;;;2.88;1.58;;;14.20;72.10;;;;;;4975155;28;20538;-82
2022/07/04 04:37:15;;;;;;;2.05;1.42;;;14.20;71.60;;;;;;4976187;28;20093;-83
2022/07/04 04:39:41;;;;;;;7.00;1.38;;;14.20;71.20;;;;;;4977893;28;20093;-82
2022/07/04 04:42:06;;;;;;;4.38;1.70;;;14.20;71.40;;;;;;4993139;28;20090;-82
2022/07/04 04:44:32;;;;;;;2.45;1.73;;;14.30;71.30;;;;;;4993843;28;20014;-89
2022/07/04 04:46:58;;;;;;;3.72;1.75;;;14.30;71.60;;;;;;5000056;28;20042;-86
2022/07/04 04:49:23;;;;;;;4.10;2.03;;;14.30;71.60;;;;;;5000127;28;20034;-87
2022/07/04 04:51:49;;;;;;;4.55;1.75;;;14.20;71.40;;;;;;5010838;28;20358;-89
2022/07/04 04:54:14;;;;;;;4.05;1.80;;;14.20;71.60;;;;;;4998332;28;20061;-89
2022/07/04 04:56:40;;;;;;;6.80;1.95;;;14.30;71.40;;;;;;4998188;28;20042;-91
2022/07/04 04:59:07;;;;;;;4.00;1.83;;;14.30;71.50;;;;;;4996586;28;20046;-89
2022/07/04 05:01:33;;;;;;;3.38;1.38;;;14.20;71.60;;;;;;4996416;28;20057;-89
2022/07/04 05:03:59;;;;;;;3.40;1.50;;;14.30;71.90;;;;;;4980853;28;20026;-88
2022/07/04 05:06:25;;;;;;;4.57;1.63;;;14.20;71.60;;;;;;4980801;28;20541;-89
2022/07/04 05:08:50;;;;;;;4.43;1.60;;;14.20;71.90;;;;;;4995650;28;20019;-88
2022/07/04 05:11:16;;;;;;;8.88;2.30;;;14.20;72.70;;;;;;4984157;28;20069;-90
2022/07/04 05:13:42;;;;;;;3.55;1.70;;;14.20;72.10;;;;;;4994677;28;20026;-86
2022/07/04 05:16:07;;;;;;;2.55;1.55;;;14.20;72.50;;;;;;4978493;28;20039;-87
2022/07/04 05:18:33;;;;;;;3.53;1.80;;;14.30;72.20;;;;;;5010554;28;20057;-86
2022/07/04 05:20:59;;;;;;;2.65;1.40;;;14.30;71.90;;;;;;5019031;28;20045;-87
2022/07/04 05:23:24;;;;;;;3.20;1.70;;;14.30;72.90;;;;;;4979753;28;20078;-86
2022/07/04 05:25:50;;;;;;;2.40;1.48;;;14.40;73.00;;;;;;4980048;28;20057;-87
2022/07/04 05:28:16;;;;;;;3.15;1.60;;;14.30;72.50;;;;;;4995675;28;20022;-88
2022/07/04 05:30:42;;;;;;;2.28;1.52;;;14.40;73.10;;;;;;4998356;28;20447;-87
2022/07/04 05:33:08;;;;;;;5.35;2.10;;;14.50;72.50;;;;;;4997157;28;20820;-87
2022/07/04 05:35:34;;;;;;;7.35;2.00;;;14.50;72.30;;;;;;4997199;28;20030;-86
2022/07/04 05:37:59;;;;;;;6.32;1.92;;;14.50;72.70;;;;;;4999061;28;20065;-88
2022/07/04 05:40:25;;;;;;;5.00;1.67;;;14.60;72.80;;;;;;4998847;28;20034;-89
2022/07/04 05:42:51;;;;;;;1.83;1.50;;;14.60;72.70;;;;;;4997010;28;20014;-87
2022/07/04 05:45:17;;;;;;;4.72;1.80;;;14.50;72.60;;;;;;4978494;28;20049;-87
2022/07/04 05:47:44;;;;;;;3.55;1.52;;;14.50;72.40;;;;;;4984027;28;20030;-88
2022/07/04 05:50:10;;;;;;;2.90;1.75;;;14.60;72.70;;;;;;4998029;28;20037;-88
2022/07/04 05:52:35;;;;;;;2.38;1.45;;;14.70;72.50;;;;;;4986929;28;20023;-88
2022/07/04 05:55:01;;;;;;;3.95;1.88;;;14.70;72.30;;;;;;4985555;28;20031;-88
2022/07/04 05:57:27;;;;;;;4.93;1.92;;;14.70;72.60;;;;;;4989445;28;20050;-87
2022/07/04 05:59:55;;;;;;;4.00;1.92;;;14.80;73.10;;;;;;5000739;28;20030;-90
2022/07/04 06:02:23;;;;;;;3.83;1.65;;;14.80;72.70;;;;;;4981567;28;20100;-84
2022/07/04 06:04:48;;;;;;;5.18;1.73;;;14.80;72.80;;;;;;4990570;28;20026;-87
2022/07/04 06:07:14;;;;;;;2.25;1.42;;;14.90;72.50;;;;;;4996646;28;20023;-92
2022/07/04 06:09:39;;;;;;;5.03;2.15;;;15.00;72.70;;;;;;4984414;28;20114;-90
2022/07/04 06:12:05;;;;;;;3.63;1.88;;;15.10;73.10;;;;;;4983286;28;20038;-90
2022/07/04 06:14:31;;;;;;;4.35;1.92;;;15.10;73.30;;;;;;4979145;28;20072;-87
2022/07/04 06:16:57;;;;;;;4.05;1.48;;;15.20;72.60;;;;;;4999128;28;20037;-85
2022/07/04 06:19:22;;;;;;;3.17;1.25;;;15.30;72.00;;;;;;5015595;28;20419;-88
2022/07/04 06:21:48;;;;;;;4.00;1.40;;;15.50;72.80;;;;;;4998049;28;20118;-84
2022/07/04 06:24:14;;;;;;;4.22;1.45;;;15.50;71.90;;;;;;4976519;28;20027;-86
2022/07/04 06:26:40;;;;;;;2.58;1.63;;;15.70;71.50;;;;;;4984957;28;20033;-82
2022/07/04 06:29:05;;;;;;;3.92;1.58;;;15.80;72.20;;;;;;4997116;28;20026;-84
2022/07/04 06:31:31;;;;;;;2.45;1.20;;;15.90;70.50;;;;;;4996612;28;20030;-83
2022/07/04 06:36:41;;;;;;;4.88;1.25;;;16.10;71.80;;;;;;4977721;28;20078;-82
2022/07/04 06:39:07;;;;;;;3.13;1.13;;;16.20;71.20;;;;;;4977979;28;20038;-79
2022/07/04 06:41:33;;;;;;;1.73;0.88;;;16.30;70.60;;;;;;4981095;28;20042;-84
2022/07/04 06:43:58;;;;;;;1.10;0.90;;;16.40;70.70;;;;;;4983277;28;20568;-82
2022/07/04 06:46:24;;;;;;;4.50;1.00;;;16.50;70.30;;;;;;4998866;28;20113;-81
2022/07/04 06:48:50;;;;;;;2.13;1.30;;;16.60;69.70;;;;;;4984275;28;20021;-83
2022/07/04 06:51:16;;;;;;;2.97;0.98;;;16.80;69.60;;;;;;4980724;28;20489;-79
2022/07/04 06:53:42;;;;;;;2.67;0.90;;;16.80;69.80;;;;;;4987666;28;20031;-86
2022/07/04 06:56:08;;;;;;;1.88;0.70;;;16.80;69.90;;;;;;5000260;28;20125;-83
2022/07/04 06:58:33;;;;;;;4.53;1.00;;;16.90;69.20;;;;;;4987036;28;20046;-87
2022/07/04 07:00:59;;;;;;;2.53;0.70;;;17.00;68.70;;;;;;4986309;28;20030;-83
2022/07/04 07:03:27;;;;;;;1.20;0.68;;;17.10;68.20;;;;;;4988414;28;20034;-83
2022/07/04 07:05:52;;;;;;;1.88;0.90;;;17.10;68.90;;;;;;4981726;28;20022;-82
2022/07/04 07:08:18;;;;;;;2.08;0.82;;;17.20;68.10;;;;;;4986517;28;20033;-92
2022/07/04 07:10:44;;;;;;;1.58;0.82;;;17.10;68.60;;;;;;4980952;28;20054;-85
2022/07/04 07:13:10;;;;;;;1.55;0.73;;;17.20;68.10;;;;;;4980100;28;20550;-84
2022/07/04 07:15:36;;;;;;;2.55;0.85;;;17.20;68.90;;;;;;4982137;28;20946;-84
2022/07/04 07:18:03;;;;;;;5.32;1.00;;;17.20;68.00;;;;;;4981881;28;20019;-83
2022/07/04 07:20:29;;;;;;;2.17;1.08;;;17.30;68.40;;;;;;4983960;28;20038;-84
2022/07/04 07:22:54;;;;;;;4.00;1.23;;;17.30;68.60;;;;;;4985220;28;20026;-85
2022/07/04 07:25:20;;;;;;;1.85;0.90;;;17.20;68.10;;;;;;4987142;28;20400;-85
2022/07/04 07:27:46;;;;;;;2.35;0.85;;;17.20;68.20;;;;;;4980597;28;20027;-84
2022/07/04 07:30:12;;;;;;;4.38;1.00;;;17.30;68.80;;;;;;4990024;28;20440;-85
2022/07/04 07:32:38;;;;;;;3.45;0.82;;;17.30;68.40;;;;;;4981101;28;20027;-88
2022/07/04 07:35:04;;;;;;;1.67;0.98;;;17.30;68.60;;;;;;4995439;28;20117;-85
2022/07/04 07:37:29;;;;;;;4.35;1.10;;;17.60;68.10;;;;;;5001068;28;20030;-84
2022/07/04 07:39:55;;;;;;;2.90;1.20;;;18.30;66.60;;;;;;4984318;28;20027;-84
2022/07/04 07:42:23;;;;;;;3.03;0.80;;;20.20;62.30;;;;;;4998994;28;20015;-86
2022/07/04 07:44:49;;;;;;;2.15;0.70;;;23.00;55.60;;;;;;4983207;28;20031;-83
2022/07/04 07:47:15;;;;;;;1.48;0.40;;;26.60;46.60;;;;;;4984568;28;20068;-84
2022/07/04 07:49:42;;;;;;;1.83;0.43;;;29.20;39.90;;;;;;4984726;28;20037;-85
2022/07/04 07:52:08;;;;;;;3.58;0.50;;;31.20;34.50;;;;;;4983129;28;20045;-83
2022/07/04 07:54:34;;;;;;;7.03;0.70;;;32.70;33.60;;;;;;4989995;28;20046;-84
2022/07/04 07:56:59;;;;;;;3.03;0.52;;;34.00;31.30;;;;;;4984813;28;20465;-85
2022/07/04 07:59:25;;;;;;;3.50;0.60;;;34.90;29.40;;;;;;4984617;28;20038;-86
2022/07/04 08:01:51;;;;;;;2.92;0.60;;;35.70;29.00;;;;;;4986258;28;20018;-86
2022/07/04 08:04:35;;;;;;;3.17;0.50;;;35.80;28.30;;;;;;4986248;28;20499;-85
2022/07/04 08:07:09;;;;;;;3.13;0.50;;;36.70;26.90;;;;;;4984708;28;20145;-86
2022/07/04 08:09:36;;;;;;;1.90;0.57;;;37.50;25.70;;;;;;4984264;28;20034;-85
2022/07/04 08:12:03;;;;;;;2.45;0.68;;;38.00;25.70;;;;;;4985812;28;20037;-86
2022/07/04 08:14:30;;;;;;;3.10;0.73;;;38.50;24.90;;;;;;4983468;28;20103;-84
2022/07/04 08:16:57;;;;;;;2.08;0.60;;;39.00;24.30;;;;;;4986114;28;20300;-85
2022/07/04 08:19:24;;;;;;;1.75;0.45;;;39.30;23.70;;;;;;4985919;28;20030;-84
2022/07/04 08:21:53;;;;;;;3.00;0.65;;;39.30;23.70;;;;;;4998322;28;20031;-85
2022/07/04 08:24:20;;;;;;;4.15;0.82;;;39.40;22.50;;;;;;4988381;28;20023;-84
2022/07/04 08:26:45;;;;;;;1.63;0.55;;;39.70;22.40;;;;;;4983519;28;20026;-87
2022/07/04 08:29:11;;;;;;;1.60;0.40;;;39.30;22.10;;;;;;4985888;28;20033;-84
2022/07/04 08:31:37;;;;;;;3.92;0.77;;;39.10;22.50;;;;;;4985558;28;20034;-85
2022/07/04 08:34:03;;;;;;;2.50;0.65;;;39.60;22.50;;;;;;4980606;28;20109;-84
2022/07/04 08:36:28;;;;;;;3.38;0.50;;;39.80;22.30;;;;;;4983350;28;20413;-84
2022/07/04 08:38:54;;;;;;;2.80;0.65;;;37.50;23.80;;;;;;4986677;28;20019;-84
2022/07/04 08:41:20;;;;;;;3.63;0.95;;;36.90;25.30;;;;;;5010557;28;20030;-84
2022/07/04 08:43:49;;;;;;;6.15;1.13;;;37.80;24.30;;;;;;4994387;28;20023;-84
2022/07/04 08:46:19;;;;;;;2.95;0.60;;;38.50;23.40;;;;;;4995760;28;20026;-84
2022/07/04 08:48:55;;;;;;;1.42;0.40;;;39.10;23.00;;;;;;4995590;28;20034;-85
2022/07/04 08:51:43;;;;;;;2.47;0.77;;;39.50;21.90;;;;;;4976329;28;20441;-84
2022/07/04 08:59:45;;;;;;;2.42;0.40;;;38.90;23.00;;;;;;4981845;28;20046;-91
2022/07/04 09:02:11;;;;;;;6.10;0.80;;;38.50;23.20;;;;;;4985790;28;20030;-85
2022/07/04 09:04:38;;;;;;;3.55;0.60;;;37.80;24.10;;;;;;4975508;28;20019;-86
2022/07/04 09:07:04;;;;;;;4.55;0.50;;;38.70;23.30;;;;;;4976163;28;20055;-86
2022/07/04 09:09:33;;;;;;;3.78;0.70;;;38.30;23.50;;;;;;4976060;28;20034;-85
2022/07/04 09:11:58;;;;;;;3.05;0.65;;;38.20;22.80;;;;;;4975317;28;20083;-85
2022/07/04 09:14:24;;;;;;;1.48;0.30;;;38.20;23.20;;;;;;4977863;28;20583;-85
2022/07/04 09:16:53;;;;;;;0.75;0.28;;;38.80;22.10;;;;;;4983557;28;20503;-82
2022/07/04 09:19:22;;;;;;;2.63;0.45;;;38.80;22.10;;;;;;4981393;28;20133;-83
2022/07/04 09:21:49;;;;;;;1.52;0.38;;;37.90;23.40;;;;;;4985083;28;20077;-83
2022/07/04 09:24:15;;;;;;;4.35;0.68;;;36.10;24.60;;;;;;4998671;28;20023;-83
2022/07/04 09:26:44;;;;;;;3.22;0.60;;;36.80;24.20;;;;;;4985317;28;20018;-83
2022/07/04 09:29:10;;;;;;;1.42;0.43;;;37.80;23.60;;;;;;4984543;28;20102;-84
2022/07/04 09:31:38;;;;;;;2.38;0.47;;;37.70;24.00;;;;;;4984070;28;20030;-84
2022/07/04 09:34:06;;;;;;;2.20;0.40;;;37.10;24.10;;;;;;4988949;28;20086;-85
2022/07/04 09:36:34;;;;;;;1.70;0.20;;;36.20;25.10;;;;;;4983124;28;20125;-76
2022/07/04 09:39:18;;;;;;;5.55;0.60;;;34.60;26.60;;;;;;4990223;28;20528;-81
2022/07/04 09:41:54;;;;;;;2.53;0.68;;;33.10;28.40;;;;;;4984778;28;20031;-84
2022/07/04 09:44:21;;;;;;;2.67;0.30;;;32.40;29.50;;;;;;4979630;28;20481;-83
2022/07/04 09:46:47;;;;;;;3.00;0.50;;;32.10;30.10;;;;;;4978105;28;20019;-77
2022/07/04 09:49:12;;;;;;;1.13;0.45;;;31.40;30.50;;;;;;4982483;28;20084;-77
2022/07/04 09:51:40;;;;;;;0.93;0.40;;;32.20;30.40;;;;;;4985782;28;20030;-82
2022/07/04 09:54:27;;;;;;;3.25;0.70;;;34.00;28.00;;;;;;5001497;28;20058;-80
2022/07/04 09:56:55;;;;;;;1.90;0.30;;;35.50;27.30;;;;;;4994622;28;20134;-81
2022/07/04 09:59:22;;;;;;;2.42;0.40;;;36.20;26.20;;;;;;4979452;28;20051;-79
2022/07/04 10:01:48;;;;;;;1.58;0.50;;;34.80;27.20;;;;;;4996546;28;20042;-79
2022/07/04 10:04:15;;;;;;;2.45;0.40;;;36.00;26.00;;;;;;4997924;28;20026;-80
2022/07/04 10:06:43;;;;;;;1.95;0.52;;;35.90;25.90;;;;;;4998051;28;20378;-78
2022/07/04 10:09:11;;;;;;;1.88;0.45;;;36.80;25.30;;;;;;4998306;28;20081;-80
2022/07/04 10:11:38;;;;;;;1.65;0.55;;;37.30;24.70;;;;;;4988914;28;20031;-78
2022/07/04 10:14:08;;;;;;;4.95;0.70;;;36.70;25.10;;;;;;4979554;28;20066;-79
2022/07/04 10:16:34;;;;;;;3.67;0.60;;;36.60;25.10;;;;;;4993499;28;20392;-83
2022/07/04 10:19:00;;;;;;;3.80;0.38;;;37.10;24.60;;;;;;4990213;28;20145;-78
2022/07/04 10:21:26;;;;;;;2.75;0.40;;;37.30;23.60;;;;;;4991575;28;20039;-81
2022/07/04 10:23:52;;;;;;;2.75;0.50;;;37.20;24.70;;;;;;4981635;28;20374;-84
2022/07/04 10:26:19;;;;;;;2.03;0.30;;;36.50;25.50;;;;;;4988392;28;20027;-85
2022/07/04 10:28:47;;;;;;;2.30;0.50;;;35.80;26.00;;;;;;4983179;28;20081;-84
2022/07/04 10:31:14;;;;;;;2.78;0.50;;;35.30;26.30;;;;;;5003892;28;20033;-85
2022/07/04 10:33:42;;;;;;;3.08;0.40;;;34.90;27.30;;;;;;4986780;28;20030;-85
2022/07/04 10:36:15;;;;;;;1.88;0.45;;;35.30;27.20;;;;;;5001507;28;20042;-83
2022/07/04 10:38:52;;;;;;;3.15;0.85;;;35.40;26.50;;;;;;4987294;28;20057;-83
2022/07/04 10:41:21;;;;;;;1.75;0.28;;;34.50;27.50;;;;;;5000500;28;20050;-83
2022/07/04 10:43:54;;;;;;;1.55;0.45;;;34.40;27.10;;;;;;4999925;28;20139;-84
2022/07/04 10:46:34;;;;;;;3.90;0.50;;;33.80;29.30;;;;;;4995447;28;20152;-81
2022/07/04 10:49:06;;;;;;;1.30;0.40;;;33.10;29.60;;;;;;4996040;28;20065;-83
2022/07/04 10:51:50;;;;;;;4.40;0.55;;;32.30;29.30;;;;;;4997285;28;20516;-83
2022/07/04 10:54:24;;;;;;;2.28;0.40;;;31.90;29.80;;;;;;4997415;28;20023;-80
2022/07/04 10:56:55;;;;;;;3.33;0.60;;;31.40;30.60;;;;;;4996944;28;20497;-86
2022/07/04 10:59:28;;;;;;;1.48;0.43;;;30.90;32.20;;;;;;4976630;28;20077;-85
2022/07/04 11:02:16;;;;;;;3.83;0.50;;;30.60;32.10;;;;;;4990750;28;20040;-85
2022/07/04 11:04:46;;;;;;;3.08;0.60;;;30.70;32.20;;;;;;4995474;28;20022;-82
2022/07/04 11:07:12;;;;;;;2.70;0.50;;;30.40;33.00;;;;;;4994600;28;20043;-82
2022/07/04 11:09:37;;;;;;;2.08;0.30;;;30.20;33.00;;;;;;4977626;28;20116;-83
2022/07/04 11:12:06;;;;;;;1.92;0.40;;;30.30;32.90;;;;;;4976025;28;20031;-81
2022/07/04 11:14:36;;;;;;;1.90;0.30;;;30.30;33.50;;;;;;4984101;28;20106;-83
2022/07/04 11:17:04;;;;;;;0.43;0.22;;;30.40;33.50;;;;;;4988937;28;20026;-86
2022/07/04 11:19:30;;;;;;;3.15;0.40;;;30.00;33.60;;;;;;4986186;28;20015;-84
2022/07/04 11:21:57;;;;;;;1.02;0.20;;;29.50;33.30;;;;;;4987688;28;20205;-80
2022/07/04 11:24:24;;;;;;;1.80;0.30;;;29.20;33.80;;;;;;4991735;28;20027;-81
2022/07/04 11:26:50;;;;;;;2.85;0.70;;;29.30;34.30;;;;;;4988661;28;20034;-84
2022/07/04 11:29:16;;;;;;;3.90;0.40;;;29.40;34.80;;;;;;4995265;28;20029;-83
2022/07/04 11:31:44;;;;;;;2.47;0.75;;;29.60;34.50;;;;;;4989409;28;20466;-86
2022/07/04 11:34:10;;;;;;;1.38;0.40;;;29.60;34.30;;;;;;4986242;28;20559;-87
2022/07/04 11:36:37;;;;;;;1.70;0.40;;;29.60;34.40;;;;;;4996985;28;20030;-89
2022/07/04 11:39:05;;;;;;;2.38;0.55;;;29.50;33.40;;;;;;4981677;28;20054;-86
2022/07/04 11:47:20;;;;;;;0.85;0.30;;;28.50;36.10;;;;;;4980363;28;20167;-86
2022/07/04 11:49:49;;;;;;;0.52;0.30;;;28.40;35.50;;;;;;4995078;28;20054;-86
2022/07/04 11:52:17;;;;;;;1.27;0.37;;;28.30;35.90;;;;;;4978095;28;20034;-87
2022/07/04 11:54:44;;;;;;;1.10;0.30;;;28.30;36.40;;;;;;4976888;28;20372;-82
2022/07/04 11:57:19;;;;;;;1.25;0.32;;;28.30;36.30;;;;;;4976445;28;20023;-88
2022/07/04 12:00:11;;;;;;;2.42;0.40;;;28.30;37.10;;;;;;4990418;28;20038;-85
2022/07/04 12:02:38;;;;;;;1.33;0.30;;;28.30;37.20;;;;;;5001547;28;20037;-87
2022/07/04 12:05:06;;;;;;;2.65;0.55;;;28.00;36.70;;;;;;4984781;28;20052;-87
2022/07/04 12:07:33;;;;;;;0.90;0.30;;;27.90;36.50;;;;;;4986697;28;20023;-88
2022/07/04 12:10:21;;;;;;;1.58;0.40;;;28.00;37.10;;;;;;4985556;28;20413;-88
2022/07/04 12:12:56;;;;;;;2.13;0.30;;;28.20;37.20;;;;;;4984968;28;20026;-87
2022/07/04 12:15:23;;;;;;;3.60;0.50;;;27.90;36.30;;;;;;4985101;28;20038;-90
2022/07/04 12:17:54;;;;;;;1.45;0.52;;;27.80;35.70;;;;;;5004045;28;20031;-87
2022/07/04 12:20:21;;;;;;;2.25;0.40;;;27.50;37.60;;;;;;4983166;28;20161;-88
2022/07/04 12:22:50;;;;;;;0.70;0.28;;;27.50;37.40;;;;;;4990652;28;20431;-87
2022/07/04 12:25:32;;;;;;;4.88;0.30;;;27.50;37.80;;;;;;4985051;28;20076;-87
2022/07/04 12:28:02;;;;;;;2.20;0.40;;;27.30;37.40;;;;;;4981540;28;20030;-87
2022/07/04 12:30:33;;;;;;;1.02;0.30;;;27.40;37.70;;;;;;4981797;28;20042;-87
2022/07/04 12:33:02;;;;;;;1.48;0.40;;;27.10;37.40;;;;;;4982158;28;20045;-88
2022/07/04 12:35:47;;;;;;;1.00;0.30;;;27.20;38.80;;;;;;4993520;28;20113;-84
2022/07/04 12:38:37;;;;;;;1.17;0.30;;;27.30;37.10;;;;;;4983172;28;20062;-86
2022/07/04 12:41:02;;;;;;;1.13;0.28;;;27.40;37.40;;;;;;4984140;28;20121;-87
2022/07/04 12:43:43;;;;;;;1.98;0.47;;;27.70;37.70;;;;;;5001864;28;20078;-88
2022/07/04 12:46:26;;;;;;;1.90;0.60;;;27.70;37.10;;;;;;4995345;28;20026;-92
2022/07/04 12:48:56;;;;;;;0.80;0.22;;;27.80;36.40;;;;;;4982994;28;20023;-90
2022/07/04 12:51:22;;;;;;;0.30;0.17;;;27.70;36.90;;;;;;4989935;28;20032;-90
2022/07/04 12:53:51;;;;;;;3.63;0.30;;;27.70;36.80;;;;;;4992565;28;20042;-89
2022/07/04 12:56:32;;;;;;;1.55;0.40;;;27.70;36.00;;;;;;4977943;28;20026;-88
2022/07/04 12:58:59;;;;;;;2.15;0.22;;;27.40;36.60;;;;;;4977354;28;20054;-89
2022/07/04 13:01:25;;;;;;;3.75;0.63;;;27.10;36.80;;;;;;5001207;28;20034;-90
2022/07/04 13:03:51;;;;;;;1.20;0.30;;;27.20;37.40;;;;;;4976323;28;20022;-91
2022/07/04 13:06:17;;;;;;;2.08;0.30;;;27.20;38.60;;;;;;4980359;28;20516;-91